sensor_id;sensor_type;location;lat;lon;timestamp;pressure;altitude;pressure_sealevel;temperature;humidity
63694;BME280;49839;51.798;10.954;2023-05-23T00:05:59;98730.50;;;16.73;nan
63694;BME280;49839;51.798;10.954;2023-05-23T00:08:27;98720.69;;;16.73;nan
63694;BME280;49839;51.798;10.954;2023-05-23T00:13:37;98735.22;;;16.69;nan
63694;BME280;49839;51.798;10.954;2023-05-23T00:16:05;98730.16;;;16.66;nan
63694;BME280;49839;51.798;10.954;2023-05-23T00:18:35;98726.94;;;16.63;nan
63694;BME280;49839;51.798;10.954;2023-05-23T00:21:04;98725.50;;;16.59;nan
63694;BME280;49839;51.798;10.954;2023-05-23T00:23:34;98723.22;;;16.54;nan
63694;BME280;49839;51.798;10.954;2023-05-23T00:26:12;98728.13;;;16.49;nan
63694;BME280;49839;51.798;10.954;2023-05-23T00:28:56;98723.88;;;16.46;nan
63694;BME280;49839;51.798;10.954;2023-05-23T00:36:54;98732.53;;;16.39;nan
63694;BME280;49839;51.798;10.954;2023-05-23T00:39:23;98726.50;;;16.37;nan
63694;BME280;49839;51.798;10.954;2023-05-23T00:41:51;98723.00;;;16.36;nan
63694;BME280;49839;51.798;10.954;2023-05-23T00:49:35;98719.75;;;16.33;nan
63694;BME280;49839;51.798;10.954;2023-05-23T00:52:05;98724.22;;;16.32;nan
63694;BME280;49839;51.798;10.954;2023-05-23T00:57:17;98723.94;;;16.35;nan
63694;BME280;49839;51.798;10.954;2023-05-23T01:00:02;98724.53;;;16.39;nan
63694;BME280;49839;51.798;10.954;2023-05-23T01:02:46;98721.19;;;16.37;nan
63694;BME280;49839;51.798;10.954;2023-05-23T01:05:17;98721.63;;;16.42;nan
63694;BME280;49839;51.798;10.954;2023-05-23T01:07:46;98731.88;;;16.46;nan
63694;BME280;49839;51.798;10.954;2023-05-23T01:10:16;98729.81;;;16.50;nan
63694;BME280;49839;51.798;10.954;2023-05-23T01:12:52;98735.59;;;16.55;nan
63694;BME280;49839;51.798;10.954;2023-05-23T01:15:25;98735.44;;;16.57;nan
63694;BME280;49839;51.798;10.954;2023-05-23T01:17:58;98726.47;;;16.58;nan
63694;BME280;49839;51.798;10.954;2023-05-23T01:20:30;98733.63;;;16.57;nan
63694;BME280;49839;51.798;10.954;2023-05-23T01:23:12;98731.66;;;16.59;nan
63694;BME280;49839;51.798;10.954;2023-05-23T01:26:01;98731.66;;;16.59;nan
63694;BME280;49839;51.798;10.954;2023-05-23T01:28:36;98728.31;;;16.57;nan
63694;BME280;49839;51.798;10.954;2023-05-23T01:31:05;98730.50;;;16.52;nan
63694;BME280;49839;51.798;10.954;2023-05-23T01:33:35;98733.69;;;16.46;nan
63694;BME280;49839;51.798;10.954;2023-05-23T01:36:04;98737.72;;;16.40;nan
63694;BME280;49839;51.798;10.954;2023-05-23T01:38:32;98738.97;;;16.36;nan
63694;BME280;49839;51.798;10.954;2023-05-23T01:41:00;98745.34;;;16.34;nan
63694;BME280;49839;51.798;10.954;2023-05-23T01:43:27;98745.16;;;16.25;nan
63694;BME280;49839;51.798;10.954;2023-05-23T01:45:57;98738.69;;;16.18;nan
63694;BME280;49839;51.798;10.954;2023-05-23T01:48:27;98740.16;;;16.11;nan
63694;BME280;49839;51.798;10.954;2023-05-23T01:50:55;98737.88;;;16.07;nan
63694;BME280;49839;51.798;10.954;2023-05-23T01:53:23;98744.69;;;16.00;nan
63694;BME280;49839;51.798;10.954;2023-05-23T01:55:51;98746.75;;;15.96;nan
63694;BME280;49839;51.798;10.954;2023-05-23T01:58:19;98749.53;;;15.94;nan
63694;BME280;49839;51.798;10.954;2023-05-23T02:00:47;98750.50;;;15.93;nan
63694;BME280;49839;51.798;10.954;2023-05-23T02:03:17;98751.84;;;15.88;nan
63694;BME280;49839;51.798;10.954;2023-05-23T02:05:44;98745.81;;;15.86;nan
63694;BME280;49839;51.798;10.954;2023-05-23T02:08:12;98750.16;;;15.87;nan
63694;BME280;49839;51.798;10.954;2023-05-23T02:10:40;98745.81;;;15.86;nan
63694;BME280;49839;51.798;10.954;2023-05-23T02:13:07;98738.22;;;15.81;nan
63694;BME280;49839;51.798;10.954;2023-05-23T02:15:35;98740.88;;;15.81;nan
63694;BME280;49839;51.798;10.954;2023-05-23T02:18:03;98744.50;;;15.80;nan
63694;BME280;49839;51.798;10.954;2023-05-23T02:20:33;98743.69;;;15.80;nan
63694;BME280;49839;51.798;10.954;2023-05-23T02:23:01;98746.47;;;15.78;nan
63694;BME280;49839;51.798;10.954;2023-05-23T02:25:28;98745.16;;;15.73;nan
63694;BME280;49839;51.798;10.954;2023-05-23T02:27:56;98747.06;;;15.70;nan
63694;BME280;49839;51.798;10.954;2023-05-23T02:30:23;98748.31;;;15.66;nan
63694;BME280;49839;51.798;10.954;2023-05-23T02:32:51;98748.03;;;15.58;nan
63694;BME280;49839;51.798;10.954;2023-05-23T02:35:19;98745.03;;;15.52;nan
63694;BME280;49839;51.798;10.954;2023-05-23T02:37:48;98740.81;;;15.49;nan
63694;BME280;49839;51.798;10.954;2023-05-23T02:40:16;98744.69;;;15.45;nan
63694;BME280;49839;51.798;10.954;2023-05-23T02:42:43;98748.56;;;15.41;nan
63694;BME280;49839;51.798;10.954;2023-05-23T02:45:11;98737.94;;;15.41;nan
63694;BME280;49839;51.798;10.954;2023-05-23T02:47:39;98739.88;;;15.39;nan
63694;BME280;49839;51.798;10.954;2023-05-23T02:50:07;98738.91;;;15.40;nan
63694;BME280;49839;51.798;10.954;2023-05-23T02:52:35;98739.16;;;15.37;nan
63694;BME280;49839;51.798;10.954;2023-05-23T02:55:05;98744.72;;;15.34;nan
63694;BME280;49839;51.798;10.954;2023-05-23T02:57:32;98736.41;;;15.27;nan
63694;BME280;49839;51.798;10.954;2023-05-23T03:00:00;98735.22;;;15.20;nan
63694;BME280;49839;51.798;10.954;2023-05-23T03:02:28;98739.91;;;15.16;nan
63694;BME280;49839;51.798;10.954;2023-05-23T03:04:56;98747.38;;;15.11;nan
63694;BME280;49839;51.798;10.954;2023-05-23T03:07:23;98745.81;;;15.09;nan
63694;BME280;49839;51.798;10.954;2023-05-23T03:09:54;98747.16;;;15.03;nan
63694;BME280;49839;51.798;10.954;2023-05-23T03:12:23;98746.19;;;15.04;nan
63694;BME280;49839;51.798;10.954;2023-05-23T03:14:51;98743.41;;;15.06;nan
63694;BME280;49839;51.798;10.954;2023-05-23T03:17:19;98746.19;;;15.04;nan
63694;BME280;49839;51.798;10.954;2023-05-23T03:19:47;98744.25;;;15.06;nan
63694;BME280;49839;51.798;10.954;2023-05-23T03:22:14;98745.00;;;15.08;nan
63694;BME280;49839;51.798;10.954;2023-05-23T03:24:42;98745.81;;;15.09;nan
63694;BME280;49839;51.798;10.954;2023-05-23T03:27:10;98745.69;;;15.10;nan
63694;BME280;49839;51.798;10.954;2023-05-23T03:29:40;98757.88;;;15.13;nan
63694;BME280;49839;51.798;10.954;2023-05-23T03:32:08;98753.44;;;15.02;nan
63694;BME280;49839;51.798;10.954;2023-05-23T03:34:36;98748.25;;;15.01;nan
63694;BME280;49839;51.798;10.954;2023-05-23T03:37:04;98747.16;;;14.92;nan
63694;BME280;49839;51.798;10.954;2023-05-23T03:39:32;98755.84;;;14.83;nan
63694;BME280;49839;51.798;10.954;2023-05-23T03:42:00;98757.66;;;14.82;nan
63694;BME280;49839;51.798;10.954;2023-05-23T03:44:28;98760.03;;;14.85;nan
63694;BME280;49839;51.798;10.954;2023-05-23T03:46:57;98756.56;;;14.85;nan
63694;BME280;49839;51.798;10.954;2023-05-23T03:49:25;98763.41;;;14.87;nan
63694;BME280;49839;51.798;10.954;2023-05-23T03:51:53;98762.94;;;14.94;nan
63694;BME280;49839;51.798;10.954;2023-05-23T03:54:21;98756.09;;;15.02;nan
63694;BME280;49839;51.798;10.954;2023-05-23T03:56:49;98755.69;;;15.07;nan
63694;BME280;49839;51.798;10.954;2023-05-23T03:59:17;98764.75;;;15.15;nan
63694;BME280;49839;51.798;10.954;2023-05-23T04:01:45;98771.50;;;15.20;nan
63694;BME280;49839;51.798;10.954;2023-05-23T04:04:14;98772.25;;;15.22;nan
63694;BME280;49839;51.798;10.954;2023-05-23T04:06:42;98775.38;;;15.27;nan
63694;BME280;49839;51.798;10.954;2023-05-23T04:09:10;98783.09;;;15.30;nan
63694;BME280;49839;51.798;10.954;2023-05-23T04:11:39;98778.50;;;15.32;nan
63694;BME280;49839;51.798;10.954;2023-05-23T04:14:08;98790.44;;;15.26;nan
63694;BME280;49839;51.798;10.954;2023-05-23T04:16:36;98784.28;;;15.26;nan
63694;BME280;49839;51.798;10.954;2023-05-23T04:19:07;98785.75;;;15.18;nan
63694;BME280;49839;51.798;10.954;2023-05-23T04:21:36;98796.97;;;15.11;nan
63694;BME280;49839;51.798;10.954;2023-05-23T04:24:05;98799.13;;;14.95;nan
63694;BME280;49839;51.798;10.954;2023-05-23T04:26:33;98802.34;;;14.87;nan
63694;BME280;49839;51.798;10.954;2023-05-23T04:29:02;98806.91;;;14.74;nan
63694;BME280;49839;51.798;10.954;2023-05-23T04:31:31;98811.84;;;14.67;nan
63694;BME280;49839;51.798;10.954;2023-05-23T04:34:00;98815.59;;;14.65;nan
63694;BME280;49839;51.798;10.954;2023-05-23T04:36:29;98821.38;;;14.58;nan
63694;BME280;49839;51.798;10.954;2023-05-23T04:38:58;98821.50;;;14.57;nan
63694;BME280;49839;51.798;10.954;2023-05-23T04:41:25;98814.00;;;14.51;nan
63694;BME280;49839;51.798;10.954;2023-05-23T04:43:54;98819.22;;;14.40;nan
63694;BME280;49839;51.798;10.954;2023-05-23T04:46:23;98820.25;;;14.26;nan
63694;BME280;49839;51.798;10.954;2023-05-23T04:48:52;98817.38;;;14.29;nan
63694;BME280;49839;51.798;10.954;2023-05-23T04:51:20;98830.00;;;14.25;nan
63694;BME280;49839;51.798;10.954;2023-05-23T04:53:48;98825.28;;;14.18;nan
63694;BME280;49839;51.798;10.954;2023-05-23T04:56:18;98831.81;;;14.25;nan
63694;BME280;49839;51.798;10.954;2023-05-23T04:58:47;98827.03;;;14.30;nan
63694;BME280;49839;51.798;10.954;2023-05-23T05:01:15;98829.59;;;14.43;nan
63694;BME280;49839;51.798;10.954;2023-05-23T05:03:43;98834.63;;;14.58;nan
63694;BME280;49839;51.798;10.954;2023-05-23T05:06:12;98831.19;;;14.92;nan
63694;BME280;49839;51.798;10.954;2023-05-23T05:08:39;98832.91;;;15.49;nan
63694;BME280;49839;51.798;10.954;2023-05-23T05:11:08;98820.94;;;15.88;nan
63694;BME280;49839;51.798;10.954;2023-05-23T05:13:37;98834.25;;;16.20;nan
63694;BME280;49839;51.798;10.954;2023-05-23T05:16:05;98833.84;;;16.57;nan
63694;BME280;49839;51.798;10.954;2023-05-23T05:18:33;98838.50;;;16.75;nan
63694;BME280;49839;51.798;10.954;2023-05-23T05:21:00;98831.09;;;17.30;nan
63694;BME280;49839;51.798;10.954;2023-05-23T05:23:30;98833.38;;;17.35;nan
63694;BME280;49839;51.798;10.954;2023-05-23T05:25:58;98831.03;;;17.51;nan
63694;BME280;49839;51.798;10.954;2023-05-23T05:28:27;98839.06;;;17.92;nan
63694;BME280;49839;51.798;10.954;2023-05-23T05:30:55;98837.00;;;18.24;nan
63694;BME280;49839;51.798;10.954;2023-05-23T05:33:23;98835.47;;;18.31;nan
63694;BME280;49839;51.798;10.954;2023-05-23T05:35:53;98843.47;;;18.70;nan
63694;BME280;49839;51.798;10.954;2023-05-23T05:38:21;98833.97;;;19.14;nan
63694;BME280;49839;51.798;10.954;2023-05-23T05:40:49;98838.03;;;19.56;nan
63694;BME280;49839;51.798;10.954;2023-05-23T05:43:16;98833.84;;;19.53;nan
63694;BME280;49839;51.798;10.954;2023-05-23T05:45:44;98831.16;;;19.26;nan
63694;BME280;49839;51.798;10.954;2023-05-23T05:48:13;98830.22;;;18.98;nan
63694;BME280;49839;51.798;10.954;2023-05-23T05:50:42;98835.19;;;18.83;nan
63694;BME280;49839;51.798;10.954;2023-05-23T05:53:11;98837.28;;;18.40;nan
63694;BME280;49839;51.798;10.954;2023-05-23T05:55:38;98828.44;;;18.40;nan
63694;BME280;49839;51.798;10.954;2023-05-23T05:58:06;98842.19;;;18.26;nan
63694;BME280;49839;51.798;10.954;2023-05-23T06:00:34;98845.22;;;18.02;nan
63694;BME280;49839;51.798;10.954;2023-05-23T06:03:07;98842.97;;;17.78;nan
63694;BME280;49839;51.798;10.954;2023-05-23T06:05:36;98843.16;;;17.65;nan
63694;BME280;49839;51.798;10.954;2023-05-23T06:08:04;98844.78;;;17.47;nan
63694;BME280;49839;51.798;10.954;2023-05-23T06:10:32;98852.91;;;17.15;nan
63694;BME280;49839;51.798;10.954;2023-05-23T06:13:00;98847.63;;;17.03;nan
63694;BME280;49839;51.798;10.954;2023-05-23T06:15:28;98846.03;;;16.91;nan
63694;BME280;49839;51.798;10.954;2023-05-23T06:17:55;98844.66;;;16.76;nan
63694;BME280;49839;51.798;10.954;2023-05-23T06:20:24;98851.06;;;16.73;nan
63694;BME280;49839;51.798;10.954;2023-05-23T06:22:53;98837.31;;;16.68;nan
63694;BME280;49839;51.798;10.954;2023-05-23T06:25:20;98841.69;;;16.58;nan
63694;BME280;49839;51.798;10.954;2023-05-23T06:27:48;98840.25;;;16.54;nan
63694;BME280;49839;51.798;10.954;2023-05-23T06:30:16;98844.81;;;16.42;nan
63694;BME280;49839;51.798;10.954;2023-05-23T06:32:44;98847.66;;;16.30;nan
63694;BME280;49839;51.798;10.954;2023-05-23T06:35:11;98844.97;;;16.30;nan
63694;BME280;49839;51.798;10.954;2023-05-23T06:37:39;98849.75;;;16.36;nan
63694;BME280;49839;51.798;10.954;2023-05-23T06:40:12;98842.25;;;16.41;nan
63694;BME280;49839;51.798;10.954;2023-05-23T06:42:40;98837.88;;;16.51;nan
63694;BME280;49839;51.798;10.954;2023-05-23T06:45:08;98844.72;;;16.33;nan
63694;BME280;49839;51.798;10.954;2023-05-23T06:47:36;98849.31;;;16.31;nan
63694;BME280;49839;51.798;10.954;2023-05-23T06:50:05;98833.72;;;16.37;nan
63694;BME280;49839;51.798;10.954;2023-05-23T06:52:32;98831.41;;;16.33;nan
63694;BME280;49839;51.798;10.954;2023-05-23T06:55:00;98829.28;;;16.47;nan
63694;BME280;49839;51.798;10.954;2023-05-23T06:57:29;98829.94;;;16.72;nan
63694;BME280;49839;51.798;10.954;2023-05-23T06:59:57;98830.69;;;17.04;nan
63694;BME280;49839;51.798;10.954;2023-05-23T07:02:25;98827.66;;;17.19;nan
63694;BME280;49839;51.798;10.954;2023-05-23T07:04:52;98826.97;;;17.17;nan
63694;BME280;49839;51.798;10.954;2023-05-23T07:07:20;98835.34;;;17.33;nan
63694;BME280;49839;51.798;10.954;2023-05-23T07:09:48;98836.94;;;17.45;nan
63694;BME280;49839;51.798;10.954;2023-05-23T07:12:16;98832.16;;;17.49;nan
63694;BME280;49839;51.798;10.954;2023-05-23T07:14:44;98829.25;;;17.52;nan
63694;BME280;49839;51.798;10.954;2023-05-23T07:17:12;98838.88;;;17.43;nan
63694;BME280;49839;51.798;10.954;2023-05-23T07:19:41;98827.28;;;17.23;nan
63694;BME280;49839;51.798;10.954;2023-05-23T07:22:08;98835.41;;;17.22;nan
63694;BME280;49839;51.798;10.954;2023-05-23T07:24:36;98837.59;;;17.07;nan
63694;BME280;49839;51.798;10.954;2023-05-23T07:27:04;98841.41;;;16.93;nan
63694;BME280;49839;51.798;10.954;2023-05-23T07:29:32;98834.91;;;16.86;nan
63694;BME280;49839;51.798;10.954;2023-05-23T07:32:01;98844.66;;;16.76;nan
63694;BME280;49839;51.798;10.954;2023-05-23T07:34:29;98834.94;;;16.54;nan
63694;BME280;49839;51.798;10.954;2023-05-23T07:36:57;98838.56;;;16.53;nan
63694;BME280;49839;51.798;10.954;2023-05-23T07:39:27;98842.06;;;16.53;nan
63694;BME280;49839;51.798;10.954;2023-05-23T07:41:55;98838.00;;;16.49;nan
63694;BME280;49839;51.798;10.954;2023-05-23T07:44:23;98840.19;;;16.44;nan
63694;BME280;49839;51.798;10.954;2023-05-23T07:46:50;98848.66;;;16.49;nan
63694;BME280;49839;51.798;10.954;2023-05-23T07:49:21;98845.56;;;16.54;nan
63694;BME280;49839;51.798;10.954;2023-05-23T07:51:49;98847.06;;;16.47;nan
63694;BME280;49839;51.798;10.954;2023-05-23T07:54:17;98842.53;;;16.59;nan
63694;BME280;49839;51.798;10.954;2023-05-23T07:56:44;98843.53;;;16.58;nan
63694;BME280;49839;51.798;10.954;2023-05-23T07:59:12;98846.22;;;16.46;nan
63694;BME280;49839;51.798;10.954;2023-05-23T08:01:40;98853.72;;;16.41;nan
63694;BME280;49839;51.798;10.954;2023-05-23T08:04:10;98851.91;;;16.42;nan
63694;BME280;49839;51.798;10.954;2023-05-23T08:06:39;98850.63;;;16.36;nan
63694;BME280;49839;51.798;10.954;2023-05-23T08:09:17;98863.28;;;16.44;nan
63694;BME280;49839;51.798;10.954;2023-05-23T08:11:45;98856.72;;;16.48;nan
63694;BME280;49839;51.798;10.954;2023-05-23T08:14:12;98863.81;;;16.59;nan
63694;BME280;49839;51.798;10.954;2023-05-23T08:16:40;98867.84;;;16.53;nan
63694;BME280;49839;51.798;10.954;2023-05-23T08:19:08;98856.16;;;16.44;nan
63694;BME280;49839;51.798;10.954;2023-05-23T08:21:36;98855.03;;;16.47;nan
63694;BME280;49839;51.798;10.954;2023-05-23T08:24:05;98866.47;;;16.38;nan
63694;BME280;49839;51.798;10.954;2023-05-23T08:26:33;98867.63;;;16.45;nan
63694;BME280;49839;51.798;10.954;2023-05-23T08:29:01;98868.47;;;16.45;nan
63694;BME280;49839;51.798;10.954;2023-05-23T08:31:29;98867.78;;;16.43;nan
63694;BME280;49839;51.798;10.954;2023-05-23T08:33:58;98883.22;;;16.17;nan
63694;BME280;49839;51.798;10.954;2023-05-23T08:36:25;98881.75;;;16.13;nan
63694;BME280;49839;51.798;10.954;2023-05-23T08:38:54;98877.31;;;16.03;nan
63694;BME280;49839;51.798;10.954;2023-05-23T08:41:24;98881.28;;;15.97;nan
63694;BME280;49839;51.798;10.954;2023-05-23T08:43:52;98883.72;;;15.89;nan
63694;BME280;49839;51.798;10.954;2023-05-23T08:46:21;98895.09;;;15.91;nan
63694;BME280;49839;51.798;10.954;2023-05-23T08:48:50;98889.78;;;15.91;nan
63694;BME280;49839;51.798;10.954;2023-05-23T08:51:20;98892.94;;;15.74;nan
63694;BME280;49839;51.798;10.954;2023-05-23T08:53:48;98901.38;;;15.79;nan
63694;BME280;49839;51.798;10.954;2023-05-23T08:56:19;98907.16;;;15.84;nan
63694;BME280;49839;51.798;10.954;2023-05-23T08:58:49;98906.44;;;15.93;nan
63694;BME280;49839;51.798;10.954;2023-05-23T09:01:19;98913.31;;;15.95;nan
63694;BME280;49839;51.798;10.954;2023-05-23T09:03:47;98910.44;;;15.87;nan
63694;BME280;49839;51.798;10.954;2023-05-23T09:06:16;98907.06;;;15.85;nan
63694;BME280;49839;51.798;10.954;2023-05-23T09:08:47;98920.44;;;15.84;nan
63694;BME280;49839;51.798;10.954;2023-05-23T09:11:14;98923.84;;;15.86;nan
63694;BME280;49839;51.798;10.954;2023-05-23T09:13:42;98926.75;;;15.72;nan
63694;BME280;49839;51.798;10.954;2023-05-23T09:16:11;98919.22;;;15.54;nan
63694;BME280;49839;51.798;10.954;2023-05-23T09:18:41;98923.19;;;15.49;nan
63694;BME280;49839;51.798;10.954;2023-05-23T09:21:09;98941.41;;;15.42;nan
63694;BME280;49839;51.798;10.954;2023-05-23T09:23:39;98932.59;;;15.30;nan
63694;BME280;49839;51.798;10.954;2023-05-23T09:26:09;98939.94;;;15.15;nan
63694;BME280;49839;51.798;10.954;2023-05-23T09:28:38;98939.09;;;15.15;nan
63694;BME280;49839;51.798;10.954;2023-05-23T09:31:07;98930.16;;;14.81;nan
63694;BME280;49839;51.798;10.954;2023-05-23T09:33:39;98944.91;;;14.61;nan
63694;BME280;49839;51.798;10.954;2023-05-23T09:36:07;98943.53;;;14.55;nan
63694;BME280;49839;51.798;10.954;2023-05-23T09:38:36;98943.78;;;14.52;nan
63694;BME280;49839;51.798;10.954;2023-05-23T09:41:05;98957.28;;;14.49;nan
63694;BME280;49839;51.798;10.954;2023-05-23T09:43:33;98944.91;;;14.37;nan
63694;BME280;49839;51.798;10.954;2023-05-23T09:46:06;98954.41;;;14.40;nan
63694;BME280;49839;51.798;10.954;2023-05-23T09:48:34;98956.25;;;14.26;nan
63694;BME280;49839;51.798;10.954;2023-05-23T09:51:08;98963.28;;;14.15;nan
63694;BME280;49839;51.798;10.954;2023-05-23T09:53:36;98971.13;;;14.16;nan
63694;BME280;49839;51.798;10.954;2023-05-23T09:56:05;98971.75;;;14.20;nan
63694;BME280;49839;51.798;10.954;2023-05-23T09:58:37;98977.09;;;14.07;nan
63694;BME280;49839;51.798;10.954;2023-05-23T10:01:08;98972.78;;;13.93;nan
63694;BME280;49839;51.798;10.954;2023-05-23T10:03:43;98984.41;;;14.03;nan
63694;BME280;49839;51.798;10.954;2023-05-23T10:06:20;98985.88;;;14.07;nan
63694;BME280;49839;51.798;10.954;2023-05-23T10:08:54;98986.44;;;13.87;nan
63694;BME280;49839;51.798;10.954;2023-05-23T10:14:23;98993.25;;;13.66;nan
63694;BME280;49839;51.798;10.954;2023-05-23T10:16:56;98986.88;;;13.68;nan
63694;BME280;49839;51.798;10.954;2023-05-23T10:19:30;99006.25;;;13.56;nan
63694;BME280;49839;51.798;10.954;2023-05-23T10:22:06;99011.88;;;13.51;nan
63694;BME280;49839;51.798;10.954;2023-05-23T10:24:35;98998.13;;;13.34;nan
63694;BME280;49839;51.798;10.954;2023-05-23T10:27:03;99012.53;;;13.15;nan
63694;BME280;49839;51.798;10.954;2023-05-23T10:29:31;99009.75;;;13.04;nan
63694;BME280;49839;51.798;10.954;2023-05-23T10:32:01;99015.72;;;13.08;nan
63694;BME280;49839;51.798;10.954;2023-05-23T10:34:35;99026.28;;;13.08;nan
63694;BME280;49839;51.798;10.954;2023-05-23T10:37:06;99023.09;;;13.02;nan
63694;BME280;49839;51.798;10.954;2023-05-23T10:39:53;99030.91;;;13.04;nan
63694;BME280;49839;51.798;10.954;2023-05-23T10:42:32;99022.72;;;12.94;nan
63694;BME280;49839;51.798;10.954;2023-05-23T10:45:17;99024.47;;;12.95;nan
63694;BME280;49839;51.798;10.954;2023-05-23T10:47:46;99025.94;;;12.99;nan
63694;BME280;49839;51.798;10.954;2023-05-23T10:50:28;99026.69;;;13.01;nan
63694;BME280;49839;51.798;10.954;2023-05-23T10:53:00;99027.53;;;13.02;nan
63694;BME280;49839;51.798;10.954;2023-05-23T10:55:33;99039.59;;;13.06;nan
63694;BME280;49839;51.798;10.954;2023-05-23T10:58:09;99029.22;;;13.03;nan
63694;BME280;49839;51.798;10.954;2023-05-23T11:00:38;99037.78;;;13.07;nan
63694;BME280;49839;51.798;10.954;2023-05-23T11:03:15;99034.63;;;13.01;nan
63694;BME280;49839;51.798;10.954;2023-05-23T11:05:47;99036.09;;;13.06;nan
63694;BME280;49839;51.798;10.954;2023-05-23T11:08:23;99032.63;;;13.05;nan
63694;BME280;49839;51.798;10.954;2023-05-23T11:10:59;99036.72;;;12.96;nan
63694;BME280;49839;51.798;10.954;2023-05-23T11:13:54;99019.34;;;12.92;nan
63694;BME280;49839;51.798;10.954;2023-05-23T11:16:26;99037.13;;;12.90;nan
63694;BME280;49839;51.798;10.954;2023-05-23T11:19:23;99032.13;;;12.86;nan
63694;BME280;49839;51.798;10.954;2023-05-23T11:21:57;99062.91;;;12.87;nan
63694;BME280;49839;51.798;10.954;2023-05-23T11:24:48;99053.56;;;12.81;nan
63694;BME280;49839;51.798;10.954;2023-05-23T11:27:17;99059.63;;;12.83;nan
63694;BME280;49839;51.798;10.954;2023-05-23T11:30:00;99062.66;;;12.77;nan
63694;BME280;49839;51.798;10.954;2023-05-23T11:32:34;99067.19;;;12.75;nan
63694;BME280;49839;51.798;10.954;2023-05-23T11:35:07;99074.22;;;12.62;nan
63694;BME280;49839;51.798;10.954;2023-05-23T11:37:37;99072.34;;;12.64;nan
63694;BME280;49839;51.798;10.954;2023-05-23T11:40:28;99078.09;;;12.70;nan
63694;BME280;49839;51.798;10.954;2023-05-23T11:42:56;99081.41;;;12.60;nan
63694;BME280;49839;51.798;10.954;2023-05-23T11:45:24;99077.25;;;12.56;nan
63694;BME280;49839;51.798;10.954;2023-05-23T11:47:53;99072.06;;;12.54;nan
63694;BME280;49839;51.798;10.954;2023-05-23T11:50:21;99080.13;;;12.38;nan
63694;BME280;49839;51.798;10.954;2023-05-23T11:52:51;99097.47;;;12.28;nan
63694;BME280;49839;51.798;10.954;2023-05-23T11:55:22;99088.81;;;12.26;nan
63694;BME280;49839;51.798;10.954;2023-05-23T11:57:55;99093.72;;;12.18;nan
63694;BME280;49839;51.798;10.954;2023-05-23T12:00:22;99094.84;;;12.14;nan
63694;BME280;49839;51.798;10.954;2023-05-23T12:02:50;99102.97;;;12.11;nan
63694;BME280;49839;51.798;10.954;2023-05-23T12:05:20;99102.94;;;11.97;nan
63694;BME280;49839;51.798;10.954;2023-05-23T12:07:48;99097.28;;;11.88;nan
63694;BME280;49839;51.798;10.954;2023-05-23T12:10:17;99095.34;;;11.76;nan
63694;BME280;49839;51.798;10.954;2023-05-23T12:12:46;99092.69;;;11.62;nan
63694;BME280;49839;51.798;10.954;2023-05-23T12:15:16;99104.44;;;11.56;nan
63694;BME280;49839;51.798;10.954;2023-05-23T12:17:44;99105.56;;;11.52;nan
63694;BME280;49839;51.798;10.954;2023-05-23T12:20:13;99106.16;;;11.57;nan
63694;BME280;49839;51.798;10.954;2023-05-23T12:22:41;99117.59;;;11.42;nan
63694;BME280;49839;51.798;10.954;2023-05-23T12:25:09;99120.91;;;11.46;nan
63694;BME280;49839;51.798;10.954;2023-05-23T12:27:39;99114.72;;;11.47;nan
63694;BME280;49839;51.798;10.954;2023-05-23T12:30:11;99106.66;;;11.34;nan
63694;BME280;49839;51.798;10.954;2023-05-23T12:32:45;99110.31;;;11.31;nan
63694;BME280;49839;51.798;10.954;2023-05-23T12:35:16;99109.94;;;11.37;nan
63694;BME280;49839;51.798;10.954;2023-05-23T12:37:44;99108.06;;;11.39;nan
63694;BME280;49839;51.798;10.954;2023-05-23T12:40:13;99105.84;;;11.48;nan
63694;BME280;49839;51.798;10.954;2023-05-23T12:42:48;99107.53;;;11.49;nan
63694;BME280;49839;51.798;10.954;2023-05-23T12:45:17;99114.97;;;11.42;nan
63694;BME280;49839;51.798;10.954;2023-05-23T12:47:46;99105.06;;;11.46;nan
63694;BME280;49839;51.798;10.954;2023-05-23T12:50:18;99114.78;;;11.45;nan
63694;BME280;49839;51.798;10.954;2023-05-23T12:52:46;99120.50;;;11.37;nan
63694;BME280;49839;51.798;10.954;2023-05-23T12:55:14;99118.91;;;11.35;nan
63694;BME280;49839;51.798;10.954;2023-05-23T12:57:42;99113.03;;;11.30;nan
63694;BME280;49839;51.798;10.954;2023-05-23T13:00:10;99127.13;;;11.45;nan
63694;BME280;49839;51.798;10.954;2023-05-23T13:02:40;99128.47;;;11.52;nan
63694;BME280;49839;51.798;10.954;2023-05-23T13:05:09;99131.06;;;11.37;nan
63694;BME280;49839;51.798;10.954;2023-05-23T13:07:37;99156.44;;;11.24;nan
63694;BME280;49839;51.798;10.954;2023-05-23T13:10:06;99151.59;;;11.17;nan
63694;BME280;49839;51.798;10.954;2023-05-23T13:12:34;99140.81;;;11.05;nan
63694;BME280;49839;51.798;10.954;2023-05-23T13:15:02;99154.44;;;10.98;nan
63694;BME280;49839;51.798;10.954;2023-05-23T13:17:33;99164.56;;;10.90;nan
63694;BME280;49839;51.798;10.954;2023-05-23T13:20:01;99163.53;;;10.76;nan
63694;BME280;49839;51.798;10.954;2023-05-23T13:22:32;99181.88;;;10.78;nan
63694;BME280;49839;51.798;10.954;2023-05-23T13:25:00;99171.59;;;10.73;nan
63694;BME280;49839;51.798;10.954;2023-05-23T13:27:27;99180.63;;;10.69;nan
63694;BME280;49839;51.798;10.954;2023-05-23T13:29:55;99188.75;;;10.65;nan
63694;BME280;49839;51.798;10.954;2023-05-23T13:32:22;99201.09;;;10.64;nan
63694;BME280;49839;51.798;10.954;2023-05-23T13:34:51;99198.59;;;10.61;nan
63694;BME280;49839;51.798;10.954;2023-05-23T13:37:19;99196.91;;;10.60;nan
63694;BME280;49839;51.798;10.954;2023-05-23T13:39:48;99215.34;;;10.60;nan
63694;BME280;49839;51.798;10.954;2023-05-23T13:42:16;99209.47;;;10.55;nan
63694;BME280;49839;51.798;10.954;2023-05-23T13:44:44;99197.22;;;10.54;nan
63694;BME280;49839;51.798;10.954;2023-05-23T13:47:13;99212.09;;;10.55;nan